Latest Weather Observations for Lord Howe Island

IDN60801

Issued at 1:05 pm EST Friday 25 July 2014 (issued every 30 minutes, with the page automatically refreshed every 10 minutes)

About weather observations | Map of weather stations | Latest weather observations for NSW | Other Formats
Station Details ID: 200839 Name: LORD HOWE ISLAND AERO Lat: -31.54 Lon: 159.08 Height: 5.0 m
Data from the previous 72 hours. | See also: Recent months at Lord Howe Island
Date/Time
EST
Temp
°C
App
Temp
°C
Dew
Point
Rel
Hum
%
Delta-T
°C
Wind Press
QNH
hPa
Press
MSL
hPa
Rain
since 9 am
mm
Dir
 
Spd
km/h
Gust
km/h
Spd
kts
Gust
kts
25/01:00pm 18.3 16.3 12.7 70 3.1 NNE 15 17 8 9 1027.0 - 0.6
25/12:30pm 18.6 16.7 13.1 70 3.1 NNE 15 19 8 10 1027.1 - 0.6
25/12:03pm 17.8 17.3 13.7 77 2.3 NNW 9 17 5 9 1027.7 - 0.6
25/12:00pm 17.6 17.1 13.9 79 2.1 NW 9 17 5 9 1027.7 - 0.6
25/11:46am 16.9 16.4 14.8 87 1.2 WNW 11 24 6 13 1027.9 - 0.4
25/11:30am 18.6 16.8 10.8 60 4.2 N 11 19 6 10 1027.9 1027.8 0.0
25/11:00am 20.1 18.4 11.1 56 4.9 NNE 11 24 6 13 1028.2 - 0.0
25/10:30am 20.1 17.9 10.9 55 5.0 NNE 13 22 7 12 1028.7 - 0.0
25/10:00am 19.5 17.5 10.3 55 4.9 N 11 17 6 9 1028.9 - 0.0
25/09:30am 20.2 18.8 10.8 54 5.1 N 9 19 5 10 1028.9 - 0.0
25/09:00am 19.6 17.6 10.2 54 5.1 NNE 11 22 6 12 1028.7 - 0.0
25/08:30am 19.1 17.0 9.6 54 5.0 NNE 11 17 6 9 1028.4 1028.3 0.0
25/08:00am 18.7 16.6 9.6 55 4.8 N 11 24 6 13 1028.3 - 0.0
25/07:30am 18.3 15.6 8.8 54 4.9 N 13 19 7 10 1027.8 - 0.0
25/07:00am 17.5 15.1 8.7 56 4.5 N 11 17 6 9 1027.6 - 0.0
25/06:30am 16.9 13.9 7.7 54 4.6 N 13 19 7 10 1027.4 - 0.0
25/06:00am 13.4 11.7 8.3 71 2.5 N 7 9 4 5 1027.0 - 0.0
25/05:30am 14.1 13.8 8.7 70 2.7 CALM 0 7 0 4 1026.8 1026.8 0.0
25/05:00am 13.9 12.5 8.9 72 2.5 N 6 11 3 6 1026.6 - 0.0
25/04:30am 15.1 13.7 9.0 67 3.1 N 6 13 3 7 1026.3 - 0.0
25/04:00am 16.4 14.4 8.7 60 3.9 N 9 15 5 8 1026.2 - 0.0
25/03:30am 17.1 15.1 8.7 57 4.3 N 9 17 5 9 1026.0 - 0.0
25/03:00am 17.0 14.6 8.8 58 4.2 NNE 11 17 6 9 1025.9 - 0.0
25/02:30am 16.4 13.9 8.3 58 4.1 N 11 15 6 8 1025.7 1025.7 0.0
25/02:00am 16.3 14.0 9.1 62 3.7 NNE 11 15 6 8 1025.9 - 0.0
25/01:30am 16.7 14.3 8.7 59 4.1 NNE 11 19 6 10 1026.0 - 0.0
25/01:00am 16.1 14.6 8.6 61 3.8 N 6 9 3 5 1026.0 - 0.0
25/12:30am 16.4 14.2 7.8 56 4.3 NNE 9 17 5 9 1025.9 - 0.0
25/12:00am 14.6 13.0 8.6 67 3.0 NNE 7 9 4 5 1026.0 - 0.0
 
Date/Time
EST
Temp
°C
App
Temp
°C
Dew
Point
Rel
Hum
%
Delta-T
°C
Wind Press
QNH
hPa
Press
MSL
hPa
Rain
since 9 am
mm
Dir
 
Spd
km/h
Gust
km/h
Spd
kts
Gust
kts
24/11:30pm 14.8 13.4 8.9 68 3.0 NNE 6 7 3 4 1026.3 1026.3 0.0
24/11:00pm 15.9 14.2 8.4 61 3.8 N 7 9 4 5 1026.3 - 0.0
24/10:30pm 16.4 14.4 8.7 60 3.9 NNE 9 17 5 9 1026.4 - 0.0
24/10:00pm 16.0 14.2 9.6 66 3.3 NE 9 13 5 7 1026.5 - 0.0
24/09:30pm 15.5 13.2 10.3 71 2.7 ENE 13 17 7 9 1026.5 - 0.0
24/09:00pm 15.5 13.0 9.7 68 3.0 ENE 13 17 7 9 1026.4 - 0.0
24/08:30pm 15.3 12.8 9.7 69 2.9 ENE 13 17 7 9 1026.2 1026.2 0.0
24/08:00pm 15.2 12.6 9.3 68 3.0 NE 13 15 7 8 1026.0 - 0.0
24/07:30pm 15.1 12.6 9.7 70 2.8 NE 13 17 7 9 1025.8 - 0.0
24/07:00pm 15.1 12.7 9.9 71 2.7 ENE 13 17 7 9 1025.6 - 0.0
24/06:30pm 15.5 12.4 9.0 65 3.3 ENE 15 19 8 10 1025.2 - 0.0
24/06:00pm 15.5 12.6 9.7 68 3.0 ENE 15 19 8 10 1024.9 - 0.0
24/05:30pm 15.8 13.4 10.0 68 3.0 ENE 13 19 7 10 1025.0 1025.0 0.0
24/05:00pm 15.4 13.4 8.7 64 3.4 E 9 15 5 8 1024.5 - 0.0
24/04:30pm 15.0 13.6 9.5 69 2.8 E 7 9 4 5 1024.5 - 0.0
24/04:00pm 15.7 13.7 8.8 63 3.5 ENE 9 13 5 7 1024.2 - 0.0
24/03:30pm 16.8 14.8 8.8 59 4.1 ENE 9 13 5 7 1024.0 - 0.0
24/03:00pm 16.5 14.4 8.4 58 4.1 ENE 9 13 5 7 1023.8 - 0.0
24/02:30pm 16.7 14.8 8.9 60 4.0 ENE 9 13 5 7 1024.1 1024.1 0.0
24/02:00pm 17.3 15.3 8.7 57 4.4 NE 9 13 5 7 1024.2 - 0.0
24/01:30pm 18.1 16.8 10.0 59 4.3 ENE 7 11 4 6 1024.4 - 0.0
24/01:00pm 17.7 15.5 9.2 57 4.4 ENE 11 13 6 7 1024.1 - 0.0
24/12:30pm 17.6 15.0 9.3 58 4.3 ENE 13 15 7 8 1023.9 - 0.0
24/12:00pm 17.7 15.0 8.8 56 4.6 ENE 13 19 7 10 1024.1 - 0.0
24/11:30am 17.5 14.9 9.2 58 4.3 ENE 13 17 7 9 1024.5 1024.5 0.0
24/11:00am 17.4 14.8 9.5 59 4.1 E 13 17 7 9 1025.1 - 0.0
24/10:30am 17.1 14.8 10.3 64 3.6 E 13 19 7 10 1025.4 - 0.0
24/10:00am 17.0 14.5 11.0 68 3.2 E 15 19 8 10 1025.5 - 0.0
24/09:30am 17.2 15.2 10.0 62 3.8 E 11 17 6 9 1025.3 - 0.0
24/09:00am 16.9 15.1 9.4 61 3.9 E 9 13 5 7 1025.2 - 0.0
24/08:30am 16.3 14.7 8.6 60 3.9 SE 7 13 4 7 1024.9 1024.9 4.6
24/08:00am 15.2 13.9 9.3 68 3.0 SE 6 9 3 5 1024.6 - 4.6
24/07:30am 15.1 15.3 10.7 75 2.3 CALM 0 0 0 0 1024.3 - 4.6
24/07:00am 13.2 12.3 10.7 85 1.3 SW 6 9 3 5 1024.0 - 4.6
24/06:30am 14.3 11.4 8.3 67 3.0 SE 13 15 7 8 1023.4 - 4.6
24/06:00am 13.7 11.3 8.7 72 2.5 SE 11 13 6 7 1023.0 - 4.6
24/05:30am 12.9 11.2 10.0 82 1.5 SSE 9 15 5 8 1022.9 1022.9 4.6
24/05:00am 13.5 11.0 9.8 78 1.9 SSE 13 15 7 8 1022.7 - 4.6
24/04:30am 12.8 11.8 11.1 89 0.9 ESE 7 11 4 6 1022.6 - 4.6
24/04:05am 13.2 10.8 10.1 81 1.6 ESE 13 15 7 8 1022.6 - 4.4
24/04:00am 12.9 11.0 10.6 86 1.2 ESE 11 15 6 8 1022.6 - 4.4
24/03:42am 13.3 10.9 10.0 80 1.7 ESE 13 19 7 10 1022.5 - 2.0
24/03:30am 13.7 11.3 10.2 79 1.8 SE 13 17 7 9 1022.3 - 1.2
24/03:00am 11.4 11.2 9.0 85 1.2 CALM 0 0 0 0 1022.2 - 1.0
24/02:30am 13.1 11.6 9.3 78 1.9 SE 7 11 4 6 1022.1 1022.1 1.0
24/02:00am 13.9 12.1 9.4 74 2.3 SSE 9 13 5 7 1022.1 - 1.0
24/01:30am 13.8 12.0 9.5 75 2.2 ESE 9 17 5 9 1022.2 - 1.0
24/01:00am 14.5 12.7 9.6 72 2.5 ESE 9 15 5 8 1022.4 - 1.0
24/12:30am 14.6 12.9 8.4 66 3.1 SE 7 11 4 6 1022.5 - 1.0
24/12:00am 11.8 10.7 8.6 81 1.6 ESE 4 9 2 5 1022.7 - 1.0
 
Date/Time
EST
Temp
°C
App
Temp
°C
Dew
Point
Rel
Hum
%
Delta-T
°C
Wind Press
QNH
hPa
Press
MSL
hPa
Rain
since 9 am
mm
Dir
 
Spd
km/h
Gust
km/h
Spd
kts
Gust
kts
23/11:30pm 11.9 10.4 8.4 79 1.7 SSE 6 11 3 6 1022.9 1022.9 1.0
23/11:00pm 11.9 10.6 7.8 76 2.0 SE 4 11 2 6 1022.9 - 1.0
23/10:30pm 10.2 8.5 7.7 84 1.2 S 6 9 3 5 1023.1 - 1.0
23/10:00pm 10.3 9.3 7.3 82 1.4 S 2 7 1 4 1023.2 - 1.0
23/09:30pm 11.0 10.4 7.2 77 1.8 CALM 0 0 0 0 1023.3 - 1.0
23/09:00pm 12.9 11.6 7.5 69 2.6 S 4 9 2 5 1023.1 - 1.0
23/08:30pm 13.6 12.0 7.9 68 2.8 S 6 9 3 5 1022.9 1022.9 1.0
23/08:00pm 15.0 12.2 7.0 59 3.9 SE 11 13 6 7 1022.7 - 1.0
23/07:30pm 13.9 11.9 7.3 64 3.2 SE 7 13 4 7 1022.5 - 1.0
23/07:00pm 13.9 12.5 7.3 64 3.2 ESE 4 11 2 6 1022.2 - 1.0
23/06:30pm 14.8 12.1 5.7 54 4.3 SSE 9 13 5 7 1022.0 - 1.0
23/06:00pm 14.7 12.6 5.9 55 4.2 S 6 9 3 5 1021.6 - 1.0
23/05:30pm 14.1 12.8 5.9 57 3.9 ESE 2 7 1 4 1021.3 1021.3 1.0
23/05:00pm 14.4 11.9 6.5 59 3.8 SSE 9 15 5 8 1021.2 - 1.0
23/04:30pm 15.6 13.3 5.8 52 4.7 SSE 7 13 4 7 1021.0 - 1.0
23/04:00pm 16.1 13.1 5.9 50 4.9 ESE 11 20 6 11 1020.9 - 1.0
23/03:30pm 16.5 13.4 5.4 48 5.3 E 11 19 6 10 1020.7 - 1.0
23/03:00pm 16.1 14.1 6.4 52 4.7 SSE 6 9 3 5 1020.7 - 1.0
23/02:30pm 16.8 14.3 6.4 50 5.1 S 9 28 5 15 1020.6 1020.6 1.0
23/02:00pm 16.8 14.4 6.9 52 4.9 SSE 9 19 5 10 1020.4 - 1.0
23/01:30pm 16.4 14.4 8.5 59 4.0 W 9 17 5 9 1020.2 - 1.0
23/01:00pm 16.2 14.4 7.3 55 4.4 ENE 6 11 3 6 1020.4 - 1.0
23/12:30pm 15.3 12.1 8.6 64 3.4 SW 15 32 8 17 1020.6 - 1.0
23/12:00pm 16.9 13.7 9.8 63 3.7 E 17 22 9 12 1020.7 - 1.0
23/11:30am 16.7 13.0 10.0 64 3.5 E 20 28 11 15 1021.2 1021.2 1.0
23/11:00am 16.3 12.4 9.3 63 3.6 E 20 28 11 15 1021.5 - 1.0
23/10:30am 15.2 14.7 10.8 75 2.3 E 4 9 2 5 1021.9 - 0.8
23/10:00am 15.4 12.1 10.9 74 2.4 E 19 30 10 16 1022.2 - 0.2
23/09:30am 16.8 12.9 9.5 62 3.8 E 20 28 11 15 1022.1 - 0.0
23/09:00am 16.3 14.1 9.5 64 3.5 SE 11 24 6 13 1022.2 - 0.0
23/08:30am 16.2 13.6 9.4 64 3.5 SE 13 24 7 13 1021.9 1021.9 4.2
23/08:00am 15.5 13.4 9.9 69 2.9 SE 11 19 6 10 1021.6 - 4.2
23/07:30am 15.0 13.0 10.2 73 2.5 ESE 11 20 6 11 1021.4 - 4.2
23/07:00am 14.5 12.5 10.3 76 2.2 SSE 11 17 6 9 1021.1 - 4.2
23/06:30am 13.9 12.2 9.8 76 2.1 SE 9 15 5 8 1020.9 - 4.2
23/06:00am 12.9 11.5 10.8 87 1.1 E 9 11 5 6 1020.5 - 4.2
23/05:30am 13.0 11.7 11.3 89 0.9 E 9 13 5 7 1020.3 1020.3 4.2
23/05:00am 12.9 11.1 10.8 87 1.1 E 11 13 6 7 1019.9 - 4.2
23/04:57am 12.9 11.5 10.8 87 1.1 E 9 13 5 7 1019.9 - 4.2
23/04:40am 13.3 12.4 10.6 84 1.4 SW 6 13 3 7 1019.8 - 4.0
23/04:30am 13.2 13.4 10.7 85 1.3 CALM 0 6 0 3 1019.7 - 3.4
23/04:00am 12.9 11.4 10.6 86 1.2 E 9 11 5 6 1019.4 - 3.4
23/03:45am 13.1 11.6 10.4 84 1.4 ESE 9 17 5 9 1019.2 - 3.4
23/03:34am 13.3 11.2 9.8 79 1.8 ESE 11 19 6 10 1019.2 - 3.4
23/03:30am 13.5 11.0 9.6 77 2.0 SE 13 28 7 15 1019.3 - 3.4
23/03:00am 13.3 12.2 10.6 84 1.4 S 7 13 4 7 1019.1 - 3.4
23/02:30am 13.9 11.9 8.7 71 2.6 SE 9 15 5 8 1019.1 1019.1 3.4
23/02:00am 14.0 12.6 9.7 75 2.2 SE 7 15 4 8 1019.2 - 3.4
23/01:30am 14.2 12.6 10.1 76 2.1 SE 9 20 5 11 1019.4 - 3.4
23/01:00am 13.9 12.7 10.4 79 1.8 SE 7 17 4 9 1019.5 - 3.4
23/12:30am 13.6 12.1 10.7 82 1.5 SE 9 17 5 9 1019.7 - 3.4
23/12:07am 13.8 12.5 11.1 84 1.4 ESE 9 30 5 16 1019.8 - 2.6
23/12:06am 13.9 12.6 11.1 83 1.5 ESE 9 30 5 16 1019.8 - 1.8
23/12:00am 13.8 13.0 10.9 83 1.5 SE 6 11 3 6 1019.7 - 1.6
 
Date/Time
EST
Temp
°C
App
Temp
°C
Dew
Point
Rel
Hum
%
Delta-T
°C
Wind Press
QNH
hPa
Press
MSL
hPa
Rain
since 9 am
mm
Dir
 
Spd
km/h
Gust
km/h
Spd
kts
Gust
kts
22/11:46pm 14.2 11.9 10.6 79 1.9 SE 13 22 7 12 1019.9 - 1.0
22/11:30pm 15.2 13.2 8.7 65 3.3 ESE 9 22 5 12 1019.7 1019.7 0.2
22/11:00pm 14.7 12.8 9.0 68 2.9 SSE 9 26 5 14 1019.9 - 0.2
22/10:30pm 14.6 12.7 8.9 68 2.9 SW 9 24 5 13 1020.1 - 0.2
22/10:00pm 14.7 13.1 8.8 68 3.0 SSE 7 15 4 8 1020.2 - 0.2
22/09:30pm 15.1 12.7 8.6 65 3.3 SSW 11 24 6 13 1020.3 - 0.2
22/09:00pm 15.1 12.5 9.2 68 3.0 SSW 13 20 7 11 1020.2 - 0.2
22/08:30pm 14.9 12.1 10.1 73 2.5 SSW 15 24 8 13 1020.0 1020.0 0.2
22/08:00pm 15.0 13.0 7.0 59 3.9 S 7 13 4 7 1020.0 - 0.2
22/07:30pm 15.4 12.1 6.5 55 4.3 S 13 20 7 11 1020.0 - 0.2
22/07:00pm 15.1 12.7 6.9 58 4.0 SSE 9 13 5 7 1020.0 - 0.2
22/06:30pm 15.3 12.0 6.4 55 4.3 SSW 13 26 7 14 1019.9 - 0.2
22/06:00pm 14.7 12.7 6.4 57 4.0 S 6 11 3 6 1019.7 - 0.2
22/05:30pm 15.0 12.3 5.5 53 4.5 S 9 17 5 9 1019.4 1019.4 0.2
22/05:00pm 15.3 12.2 5.6 52 4.6 S 11 17 6 9 1019.1 - 0.2
22/04:30pm 15.3 11.4 6.9 57 4.1 SSW 17 28 9 15 1018.9 - 0.2
22/04:00pm 15.9 12.1 7.7 58 4.1 SSW 17 26 9 14 1018.8 - 0.2
22/03:30pm 16.0 12.1 8.5 61 3.8 SSW 19 33 10 18 1018.6 - 0.2
22/03:00pm 16.8 13.5 9.5 62 3.8 SSW 17 30 9 16 1018.5 - 0.2
22/02:30pm 17.2 14.0 9.8 61 3.9 SSW 17 24 9 13 1018.5 1018.5 0.2
22/02:00pm 16.8 13.5 9.5 62 3.8 SSW 17 28 9 15 1018.4 - 0.2
22/01:30pm 17.3 13.9 9.0 58 4.3 SSW 17 28 9 15 1018.3 - 0.2
22/01:00pm 17.5 14.6 9.7 60 4.1 SSW 15 26 8 14 1018.5 - 0.2

Other Formats:

Comma delimited format used in spreadsheet applications
http://www.bom.gov.au/fwo/IDN60801/IDN60801.94995.axf

JavaScript Object Notation format (JSON) in row-major order
http://www.bom.gov.au/fwo/IDN60801/IDN60801.94995.json